Time;durP1;ratioP1;P1;durP2;ratioP2;P2;SDS_P1;SDS_P2;PMS_P1;PMS_P2;Temp;Humidity;BMP_temperature;BMP_pressure;BME280_temperature;BME280_humidity;BME280_pressure;Samples;Min_cycle;Max_cycle;Signal;HPM_P1;HPM_P2
2023/05/02 00:00:06;;;;;;;;;;;;;;;;;;5033373;28;19959;-77
2023/05/02 00:02:31;;;;;;;;;;;;;;;;;;5032660;28;19917;-77
2023/05/02 00:04:56;;;;;;;;;;;;;;;;;;5032540;28;19909;-77
2023/05/02 00:07:22;;;;;;;;;;;;;;;;;;5028593;28;19960;-77
2023/05/02 00:09:47;;;;;;;;;;;;;;;;;;5026739;28;19999;-77
2023/05/02 00:12:12;;;;;;;;;;;;;;;;;;5031924;28;19935;-77
2023/05/02 00:14:37;;;;;;;;;;;;;;;;;;5030791;28;19913;-77
2023/05/02 00:17:03;;;;;;;;;;;;;;;;;;5043716;28;20766;-76
2023/05/02 00:19:28;;;;;;;;;;;;;;;;;;5031531;28;19909;-77
2023/05/02 00:21:53;;;;;;;;;;;;;;;;;;5043719;28;19966;-77
2023/05/02 00:24:19;;;;;;;;;;;;;;;;;;5042427;28;20003;-76
2023/05/02 00:26:45;;;;;;;;;;;;;;;;;;5047601;28;19979;-76
2023/05/02 00:29:10;;;;;;;;;;;;;;;;;;5049538;28;19908;-77
2023/05/02 00:31:35;;;;;;;;;;;;;;;;;;5041261;28;19936;-77
2023/05/02 00:34:01;;;;;;;;;;;;;;;;;;5049101;28;19929;-78
2023/05/02 00:36:26;;;;;;;;;;;;;;;;;;5047167;28;19919;-78
2023/05/02 00:38:51;;;;;;;;;;;;;;;;;;5048502;28;20365;-78
2023/05/02 00:41:17;;;;;;;;;;;;;;;;;;5050884;28;19924;-78
2023/05/02 00:43:42;;;;;;;;;;;;;;;;;;5050816;28;19909;-78
2023/05/02 00:46:07;;;;;;;;;;;;;;;;;;5037257;28;19919;-78
2023/05/02 00:48:33;;;;;;;;;;;;;;;;;;5032537;28;19909;-77
2023/05/02 00:50:58;;;;;;;;;;;;;;;;;;5031708;28;19913;-77
2023/05/02 00:53:23;;;;;;;;;;;;;;;;;;5031100;28;20011;-77
2023/05/02 00:55:49;;;;;;;;;;;;;;;;;;5031146;28;19921;-77
2023/05/02 00:58:15;;;;;;;;;;;;;;;;;;5033985;28;19909;-77
2023/05/02 01:00:40;;;;;;;;;;;;;;;;;;5030795;28;19913;-77
2023/05/02 01:03:06;;;;;;;;;;;;;;;;;;5032429;28;19935;-77
2023/05/02 01:05:31;;;;;;;;;;;;;;;;;;5032892;28;19924;-76
2023/05/02 01:07:57;;;;;;;;;;;;;;;;;;5045839;28;19940;-77
2023/05/02 01:10:22;;;;;;;;;;;;;;;;;;5033714;28;20416;-77
2023/05/02 01:12:47;;;;;;;;;;;;;;;;;;5036342;28;20375;-77
2023/05/02 01:15:13;;;;;;;;;;;;;;;;;;5033479;28;19924;-77
2023/05/02 01:17:38;;;;;;;;;;;;;;;;;;5038967;28;19908;-77
2023/05/02 01:20:03;;;;;;;;;;;;;;;;;;5046894;28;19913;-77
2023/05/02 01:22:31;;;;;;;;;;;;;;;;;;5022824;28;19965;-77
2023/05/02 01:24:57;;;;;;;;;;;;;;;;;;5039986;28;19921;-78
2023/05/02 01:27:22;;;;;;;;;;;;;;;;;;5042259;28;20022;-77
2023/05/02 01:29:48;;;;;;;;;;;;;;;;;;5039708;28;20016;-78
2023/05/02 01:32:13;;;;;;;;;;;;;;;;;;5041842;28;19909;-78
2023/05/02 01:34:38;;;;;;;;;;;;;;;;;;5037915;28;19925;-77
2023/05/02 01:37:04;;;;;;;;;;;;;;;;;;5040828;28;19908;-77
2023/05/02 01:39:29;;;;;;;;;;;;;;;;;;5038746;28;20039;-77
2023/05/02 01:41:54;;;;;;;;;;;;;;;;;;5039950;28;19916;-77
2023/05/02 01:44:20;;;;;;;;;;;;;;;;;;5040278;28;20273;-78
2023/05/02 01:46:45;;;;;;;;;;;;;;;;;;5042310;28;19908;-77
2023/05/02 01:49:10;;;;;;;;;;;;;;;;;;5042263;28;19963;-77
2023/05/02 01:51:36;;;;;;;;;;;;;;;;;;5037534;28;19908;-77
2023/05/02 01:54:02;;;;;;;;;;;;;;;;;;5042772;28;19931;-77
2023/05/02 01:56:28;;;;;;;;;;;;;;;;;;5043170;28;19963;-78
2023/05/02 01:58:53;;;;;;;;;;;;;;;;;;5032705;28;19913;-78
2023/05/02 02:01:18;;;;;;;;;;;;;;;;;;5032654;28;19908;-78
2023/05/02 02:03:44;;;;;;;;;;;;;;;;;;5033978;28;20378;-78
2023/05/02 02:06:09;;;;;;;;;;;;;;;;;;5036058;28;19909;-78
2023/05/02 02:08:34;;;;;;;;;;;;;;;;;;5043771;28;19912;-78
2023/05/02 02:11:00;;;;;;;;;;;;;;;;;;5044620;28;19908;-78
2023/05/02 02:13:25;;;;;;;;;;;;;;;;;;5034664;28;19920;-77
2023/05/02 02:15:51;;;;;;;;;;;;;;;;;;5038788;28;20341;-77
2023/05/02 02:18:16;;;;;;;;;;;;;;;;;;5036572;28;19994;-77
2023/05/02 02:20:41;;;;;;;;;;;;;;;;;;5018667;28;19913;-77
2023/05/02 02:23:07;;;;;;;;;;;;;;;;;;5046869;28;19967;-77
2023/05/02 02:25:32;;;;;;;;;;;;;;;;;;5021742;28;19915;-77
2023/05/02 02:27:58;;;;;;;;;;;;;;;;;;5036689;28;19920;-76
2023/05/02 02:30:23;;;;;;;;;;;;;;;;;;5039747;28;19935;-77
2023/05/02 02:32:48;;;;;;;;;;;;;;;;;;5036531;28;19959;-77
2023/05/02 02:35:14;;;;;;;;;;;;;;;;;;5035302;28;19972;-78
2023/05/02 02:37:39;;;;;;;;;;;;;;;;;;5033627;28;19912;-77
2023/05/02 02:40:05;;;;;;;;;;;;;;;;;;5033537;28;19919;-77
2023/05/02 02:42:30;;;;;;;;;;;;;;;;;;5033925;28;19913;-77
2023/05/02 02:44:56;;;;;;;;;;;;;;;;;;5035632;28;21720;-76
2023/05/02 02:47:21;;;;;;;;;;;;;;;;;;5037620;28;19916;-77
2023/05/02 02:49:47;;;;;;;;;;;;;;;;;;5038298;28;20297;-77
2023/05/02 02:52:13;;;;;;;;;;;;;;;;;;5042183;28;19913;-77
2023/05/02 02:54:38;;;;;;;;;;;;;;;;;;5041102;28;19920;-77
2023/05/02 02:57:04;;;;;;;;;;;;;;;;;;5037391;28;19948;-77
2023/05/02 02:59:29;;;;;;;;;;;;;;;;;;5034214;28;20363;-77
2023/05/02 03:01:55;;;;;;;;;;;;;;;;;;5033338;28;19921;-77
2023/05/02 03:04:21;;;;;;;;;;;;;;;;;;5032936;28;19915;-77
2023/05/02 03:06:46;;;;;;;;;;;;;;;;;;5034905;28;19913;-77
2023/05/02 03:09:11;;;;;;;;;;;;;;;;;;5034753;28;19909;-77
2023/05/02 03:11:37;;;;;;;;;;;;;;;;;;5035209;28;19996;-77
2023/05/02 03:14:02;;;;;;;;;;;;;;;;;;5034977;28;19919;-77
2023/05/02 03:16:27;;;;;;;;;;;;;;;;;;5038526;28;19913;-77
2023/05/02 03:18:53;;;;;;;;;;;;;;;;;;5035876;28;19915;-77
2023/05/02 03:21:18;;;;;;;;;;;;;;;;;;5035335;28;19917;-78
2023/05/02 03:23:43;;;;;;;;;;;;;;;;;;5031108;28;19909;-77
2023/05/02 03:26:09;;;;;;;;;;;;;;;;;;5032924;28;19916;-77
2023/05/02 03:28:34;;;;;;;;;;;;;;;;;;5031392;28;19909;-75
2023/05/02 03:31:00;;;;;;;;;;;;;;;;;;5031147;28;19913;-77
2023/05/02 03:33:25;;;;;;;;;;;;;;;;;;5031306;28;19925;-79
2023/05/02 03:35:51;;;;;;;;;;;;;;;;;;5031296;28;19959;-78
2023/05/02 03:38:16;;;;;;;;;;;;;;;;;;5034929;28;19908;-78
2023/05/02 03:40:44;;;;;;;;;;;;;;;;;;5038803;28;19917;-78
2023/05/02 03:43:10;;;;;;;;;;;;;;;;;;5030331;28;20382;-78
2023/05/02 03:45:35;;;;;;;;;;;;;;;;;;5044115;28;19951;-78
2023/05/02 03:48:01;;;;;;;;;;;;;;;;;;5037308;28;19953;-77
2023/05/02 03:50:26;;;;;;;;;;;;;;;;;;5039573;28;20299;-77
2023/05/02 03:52:52;;;;;;;;;;;;;;;;;;5035954;28;19944;-78
2023/05/02 03:55:24;;;;;;;;;;;;;;;;;;5037175;28;19923;-77
2023/05/02 03:57:50;;;;;;;;;;;;;;;;;;5037956;28;19913;-78
2023/05/02 04:00:16;;;;;;;;;;;;;;;;;;5031055;28;20280;-78
2023/05/02 04:02:48;;;;;;;;;;;;;;;;;;5034121;28;19944;-78
2023/05/02 04:05:39;;;;;;;;;;;;;;;;;;5034800;28;19920;-77
2023/05/02 04:08:04;;;;;;;;;;;;;;;;;;5037503;28;19913;-79
2023/05/02 04:10:29;;;;;;;;;;;;;;;;;;5034327;28;19916;-77
2023/05/02 04:12:58;;;;;;;;;;;;;;;;;;5017707;28;20608;-79
2023/05/02 04:15:24;;;;;;;;;;;;;;;;;;5030814;28;20003;-78
2023/05/02 04:17:51;;;;;;;;;;;;;;;;;;5030863;28;19913;-77
2023/05/02 04:20:17;;;;;;;;;;;;;;;;;;5020982;28;19939;-80
2023/05/02 04:22:46;;;;;;;;;;;;;;;;;;5038248;28;19962;-78
2023/05/02 04:25:12;;;;;;;;;;;;;;;;;;5048320;28;20669;-79
2023/05/02 04:27:39;;;;;;;;;;;;;;;;;;5033144;28;20007;-79
2023/05/02 04:30:09;;;;;;;;;;;;;;;;;;5038509;28;19909;-78
2023/05/02 04:32:34;;;;;;;;;;;;;;;;;;5063729;28;19928;-78
2023/05/02 04:35:00;;;;;;;;;;;;;;;;;;5030071;28;20673;-79
2023/05/02 04:37:26;;;;;;;;;;;;;;;;;;5033544;28;20007;-80
2023/05/02 04:39:51;;;;;;;;;;;;;;;;;;5033434;28;19959;-78
2023/05/02 04:42:23;;;;;;;;;;;;;;;;;;5032570;28;19935;-78
2023/05/02 04:44:57;;;;;;;;;;;;;;;;;;5030087;28;19928;-78
2023/05/02 04:47:23;;;;;;;;;;;;;;;;;;5045635;28;19913;-80
2023/05/02 04:49:48;;;;;;;;;;;;;;;;;;5035442;28;19909;-80
2023/05/02 04:52:14;;;;;;;;;;;;;;;;;;5037460;28;20011;-79
2023/05/02 04:54:39;;;;;;;;;;;;;;;;;;5021459;28;19920;-79
2023/05/02 04:57:06;;;;;;;;;;;;;;;;;;5035814;28;20406;-78
2023/05/02 04:59:35;;;;;;;;;;;;;;;;;;5037263;28;20383;-79
2023/05/02 05:02:01;;;;;;;;;;;;;;;;;;5034321;28;19913;-80
2023/05/02 05:04:26;;;;;;;;;;;;;;;;;;5034453;28;19908;-80
2023/05/02 05:06:52;;;;;;;;;;;;;;;;;;5034524;28;19920;-79
2023/05/02 05:09:18;;;;;;;;;;;;;;;;;;5049987;28;20009;-81
2023/05/02 05:11:45;;;;;;;;;;;;;;;;;;5049960;28;20012;-79
2023/05/02 05:14:11;;;;;;;;;;;;;;;;;;5049569;28;19921;-79
2023/05/02 05:16:38;;;;;;;;;;;;;;;;;;5033984;28;19913;-79
2023/05/02 05:19:04;;;;;;;;;;;;;;;;;;5035038;28;19908;-81
2023/05/02 05:21:29;;;;;;;;;;;;;;;;;;5034244;28;19913;-79
2023/05/02 05:23:56;;;;;;;;;;;;;;;;;;5033346;28;19913;-79
2023/05/02 05:26:25;;;;;;;;;;;;;;;;;;5033364;28;20011;-80
2023/05/02 05:28:51;;;;;;;;;;;;;;;;;;5033115;28;19909;-80
2023/05/02 05:31:18;;;;;;;;;;;;;;;;;;5033583;28;19936;-81
2023/05/02 05:33:47;;;;;;;;;;;;;;;;;;5032933;28;20343;-79
2023/05/02 05:36:13;;;;;;;;;;;;;;;;;;5017100;28;19917;-80
2023/05/02 05:38:38;;;;;;;;;;;;;;;;;;5034682;28;20384;-79
2023/05/02 05:41:05;;;;;;;;;;;;;;;;;;5032880;28;20291;-81
2023/05/02 05:43:31;;;;;;;;;;;;;;;;;;5047064;28;20364;-79
2023/05/02 05:45:58;;;;;;;;;;;;;;;;;;5035006;28;19940;-79
2023/05/02 05:48:23;;;;;;;;;;;;;;;;;;5036985;28;19952;-79
2023/05/02 05:50:48;;;;;;;;;;;;;;;;;;5035603;28;19913;-80
2023/05/02 05:53:14;;;;;;;;;;;;;;;;;;5039426;28;19962;-80
2023/05/02 05:55:41;;;;;;;;;;;;;;;;;;5035986;28;19923;-80
2023/05/02 05:58:06;;;;;;;;;;;;;;;;;;5037965;28;20396;-81
2023/05/02 06:00:32;;;;;;;;;;;;;;;;;;5038715;28;20295;-78
2023/05/02 06:02:57;;;;;;;;;;;;;;;;;;5032767;28;19958;-80
2023/05/02 06:05:29;;;;;;;;;;;;;;;;;;5035421;28;19920;-80
2023/05/02 06:07:54;;;;;;;;;;;;;;;;;;5035278;28;19913;-78
2023/05/02 06:10:19;;;;;;;;;;;;;;;;;;5035566;28;20295;-80
2023/05/02 06:12:45;;;;;;;;;;;;;;;;;;5038305;28;20009;-79
2023/05/02 06:15:11;;;;;;;;;;;;;;;;;;5035398;28;19917;-78
2023/05/02 06:17:37;;;;;;;;;;;;;;;;;;5039655;28;20014;-80
2023/05/02 06:20:03;;;;;;;;;;;;;;;;;;5038655;28;19909;-80
2023/05/02 06:22:28;;;;;;;;;;;;;;;;;;5041125;28;19962;-79
2023/05/02 06:24:53;;;;;;;;;;;;;;;;;;5037207;28;19909;-79
2023/05/02 06:27:19;;;;;;;;;;;;;;;;;;5042329;28;19957;-80
2023/05/02 06:29:44;;;;;;;;;;;;;;;;;;5035250;28;19913;-80
2023/05/02 06:32:09;;;;;;;;;;;;;;;;;;5036071;28;19951;-78
2023/05/02 06:34:35;;;;;;;;;;;;;;;;;;5039081;28;19924;-78
2023/05/02 06:37:00;;;;;;;;;;;;;;;;;;5037448;28;20288;-79
2023/05/02 06:39:25;;;;;;;;;;;;;;;;;;5058049;28;19909;-79
2023/05/02 06:41:51;;;;;;;;;;;;;;;;;;5033067;28;20338;-79
2023/05/02 06:44:16;;;;;;;;;;;;;;;;;;5031799;28;19909;-79
2023/05/02 06:46:42;;;;;;;;;;;;;;;;;;5031760;28;19913;-80
2023/05/02 06:49:07;;;;;;;;;;;;;;;;;;5032703;28;19909;-80
2023/05/02 06:51:32;;;;;;;;;;;;;;;;;;5033687;28;19966;-80
2023/05/02 06:53:58;;;;;;;;;;;;;;;;;;5055298;28;20435;-80
2023/05/02 06:56:26;;;;;;;;;;;;;;;;;;5030823;28;20334;-80
2023/05/02 06:58:52;;;;;;;;;;;;;;;;;;5034138;28;19955;-79
2023/05/02 07:01:17;;;;;;;;;;;;;;;;;;5032873;28;19920;-79
2023/05/02 07:03:42;;;;;;;;;;;;;;;;;;5032859;28;19967;-80
2023/05/02 07:06:08;;;;;;;;;;;;;;;;;;5034396;28;19951;-80
2023/05/02 07:08:33;;;;;;;;;;;;;;;;;;5032480;28;20352;-80
2023/05/02 07:10:59;;;;;;;;;;;;;;;;;;5032808;28;19924;-80
2023/05/02 07:13:24;;;;;;;;;;;;;;;;;;5032493;28;19915;-79
2023/05/02 07:15:49;;;;;;;;;;;;;;;;;;5031144;28;20387;-79
2023/05/02 07:18:15;;;;;;;;;;;;;;;;;;5032551;28;19916;-79
2023/05/02 07:20:41;;;;;;;;;;;;;;;;;;5031547;28;19959;-79
2023/05/02 07:23:06;;;;;;;;;;;;;;;;;;5032169;28;19909;-80
2023/05/02 07:25:31;;;;;;;;;;;;;;;;;;5032903;28;20426;-80
2023/05/02 07:27:57;;;;;;;;;;;;;;;;;;5032186;28;19909;-79
2023/05/02 07:30:22;;;;;;;;;;;;;;;;;;5032567;28;19917;-80
2023/05/02 07:32:47;;;;;;;;;;;;;;;;;;5034099;28;19976;-80
2023/05/02 07:35:13;;;;;;;;;;;;;;;;;;5036452;28;19929;-80
2023/05/02 07:37:38;;;;;;;;;;;;;;;;;;5035814;28;19909;-80
2023/05/02 07:40:03;;;;;;;;;;;;;;;;;;5035321;28;20330;-80
2023/05/02 07:42:29;;;;;;;;;;;;;;;;;;5035899;28;19909;-80
2023/05/02 07:44:54;;;;;;;;;;;;;;;;;;5036268;28;19936;-81
2023/05/02 07:47:20;;;;;;;;;;;;;;;;;;5038008;28;20291;-79
2023/05/02 07:49:45;;;;;;;;;;;;;;;;;;5036411;28;19920;-80
2023/05/02 07:52:11;;;;;;;;;;;;;;;;;;5037355;28;19914;-78
2023/05/02 07:54:36;;;;;;;;;;;;;;;;;;5037179;28;19924;-80
2023/05/02 07:57:02;;;;;;;;;;;;;;;;;;5043665;28;19912;-80
2023/05/02 07:59:27;;;;;;;;;;;;;;;;;;5033229;28;19919;-80
2023/05/02 08:01:52;;;;;;;;;;;;;;;;;;5031612;28;19909;-79
2023/05/02 08:04:18;;;;;;;;;;;;;;;;;;5030993;28;19920;-80
2023/05/02 08:06:43;;;;;;;;;;;;;;;;;;5031745;28;20053;-80
2023/05/02 08:09:08;;;;;;;;;;;;;;;;;;5033333;28;20376;-80
2023/05/02 08:11:34;;;;;;;;;;;;;;;;;;5033951;28;19909;-79
2023/05/02 08:13:59;;;;;;;;;;;;;;;;;;5030625;28;20008;-80
2023/05/02 08:16:24;;;;;;;;;;;;;;;;;;5030677;28;20371;-80
2023/05/02 08:18:50;;;;;;;;;;;;;;;;;;5030820;28;19913;-80
2023/05/02 08:21:15;;;;;;;;;;;;;;;;;;5029694;28;19908;-80
2023/05/02 08:23:40;;;;;;;;;;;;;;;;;;5031060;28;20102;-79
2023/05/02 08:26:06;;;;;;;;;;;;;;;;;;5029004;28;19998;-80
2023/05/02 08:28:33;;;;;;;;;;;;;;;;;;5029451;28;19913;-80
2023/05/02 08:30:59;;;;;;;;;;;;;;;;;;5031319;28;19916;-80
2023/05/02 08:33:24;;;;;;;;;;;;;;;;;;5031368;28;20011;-80
2023/05/02 08:35:51;;;;;;;;;;;;;;;;;;5031172;28;19979;-80
2023/05/02 08:38:17;;;;;;;;;;;;;;;;;;5029637;28;19917;-81
2023/05/02 08:40:44;;;;;;;;;;;;;;;;;;5031626;28;20423;-81
2023/05/02 08:43:10;;;;;;;;;;;;;;;;;;5030240;28;20012;-79
2023/05/02 08:45:36;;;;;;;;;;;;;;;;;;5063835;28;19923;-79
2023/05/02 08:48:01;;;;;;;;;;;;;;;;;;5030820;28;19917;-80
2023/05/02 08:50:27;;;;;;;;;;;;;;;;;;5030466;28;19916;-80
2023/05/02 08:52:52;;;;;;;;;;;;;;;;;;5032892;28;19919;-78
2023/05/02 08:55:17;;;;;;;;;;;;;;;;;;5032626;28;19920;-78
2023/05/02 08:57:43;;;;;;;;;;;;;;;;;;5031743;28;19962;-78
2023/05/02 09:00:08;;;;;;;;;;;;;;;;;;5036633;28;19913;-79
2023/05/02 09:02:33;;;;;;;;;;;;;;;;;;5037029;28;20371;-77
2023/05/02 09:04:58;;;;;;;;;;;;;;;;;;5030281;28;19920;-81
2023/05/02 09:07:24;;;;;;;;;;;;;;;;;;5030613;28;20003;-78
2023/05/02 09:09:49;;;;;;;;;;;;;;;;;;5030220;28;20008;-79
2023/05/02 09:12:15;;;;;;;;;;;;;;;;;;5030096;28;19913;-78
2023/05/02 09:14:40;;;;;;;;;;;;;;;;;;5030672;28;19959;-79
2023/05/02 09:17:05;;;;;;;;;;;;;;;;;;5031067;28;20417;-79
2023/05/02 09:19:31;;;;;;;;;;;;;;;;;;5029842;28;20399;-79
2023/05/02 09:21:56;;;;;;;;;;;;;;;;;;5040121;28;20007;-80
2023/05/02 09:24:21;;;;;;;;;;;;;;;;;;5032121;28;19975;-80
2023/05/02 09:26:47;;;;;;;;;;;;;;;;;;5030200;28;19920;-80
2023/05/02 09:29:12;;;;;;;;;;;;;;;;;;5030695;28;19944;-80
2023/05/02 09:31:38;;;;;;;;;;;;;;;;;;5030096;28;20268;-80
2023/05/02 09:34:03;;;;;;;;;;;;;;;;;;5030907;28;19939;-80
2023/05/02 09:36:29;;;;;;;;;;;;;;;;;;5055933;28;19917;-80
2023/05/02 09:38:55;;;;;;;;;;;;;;;;;;5033221;28;19909;-80
2023/05/02 09:41:21;;;;;;;;;;;;;;;;;;5033497;28;19913;-80
2023/05/02 09:43:46;;;;;;;;;;;;;;;;;;5018397;28;19916;-78
2023/05/02 09:46:11;;;;;;;;;;;;;;;;;;5037912;28;19924;-80
2023/05/02 09:48:36;;;;;;;;;;;;;;;;;;5036168;28;19916;-80
2023/05/02 09:51:03;;;;;;;;;;;;;;;;;;5035090;28;19939;-81
2023/05/02 09:53:29;;;;;;;;;;;;;;;;;;5033545;28;19952;-80
2023/05/02 09:55:54;;;;;;;;;;;;;;;;;;5035406;28;19971;-80
2023/05/02 09:58:20;;;;;;;;;;;;;;;;;;5037331;28;19909;-80
2023/05/02 10:00:46;;;;;;;;;;;;;;;;;;5033606;28;20291;-80
2023/05/02 10:03:11;;;;;;;;;;;;;;;;;;5033982;28;19913;-80
2023/05/02 10:05:37;;;;;;;;;;;;;;;;;;5034223;28;19956;-79
2023/05/02 10:08:02;;;;;;;;;;;;;;;;;;5035301;28;20023;-79
2023/05/02 10:10:28;;;;;;;;;;;;;;;;;;5035658;28;20155;-79
2023/05/02 10:12:53;;;;;;;;;;;;;;;;;;5039070;28;19915;-80
2023/05/02 10:15:19;;;;;;;;;;;;;;;;;;5036984;28;19917;-79
2023/05/02 10:17:44;;;;;;;;;;;;;;;;;;5041067;28;19908;-81
2023/05/02 10:20:09;;;;;;;;;;;;;;;;;;5019760;28;19913;-81
2023/05/02 10:22:35;;;;;;;;;;;;;;;;;;5041576;28;19954;-80
2023/05/02 10:25:02;;;;;;;;;;;;;;;;;;5040902;28;19913;-80
2023/05/02 10:27:27;;;;;;;;;;;;;;;;;;5045201;28;19909;-81
2023/05/02 10:29:53;;;;;;;;;;;;;;;;;;5042972;28;20433;-80
2023/05/02 10:32:18;;;;;;;;;;;;;;;;;;5044333;28;19916;-80
2023/05/02 10:34:44;;;;;;;;;;;;;;;;;;5046037;28;19921;-80
2023/05/02 10:37:09;;;;;;;;;;;;;;;;;;5044852;28;19920;-80
2023/05/02 10:39:34;;;;;;;;;;;;;;;;;;5044372;28;20290;-79
2023/05/02 10:42:01;;;;;;;;;;;;;;;;;;5044959;28;19923;-80
2023/05/02 10:44:26;;;;;;;;;;;;;;;;;;5046558;28;19999;-80
2023/05/02 10:46:51;;;;;;;;;;;;;;;;;;5046896;28;20003;-80
2023/05/02 10:49:17;;;;;;;;;;;;;;;;;;5048323;28;19916;-80
2023/05/02 10:51:42;;;;;;;;;;;;;;;;;;5046476;28;19958;-80
2023/05/02 10:54:07;;;;;;;;;;;;;;;;;;5048281;28;19960;-79
2023/05/02 10:56:33;;;;;;;;;;;;;;;;;;5045973;28;19935;-79
2023/05/02 10:58:58;;;;;;;;;;;;;;;;;;5018757;28;20384;-80
2023/05/02 11:01:23;;;;;;;;;;;;;;;;;;5030335;28;20445;-80
2023/05/02 11:03:51;;;;;;;;;;;;;;;;;;5033948;28;19917;-79
2023/05/02 11:06:17;;;;;;;;;;;;;;;;;;5035939;28;19912;-80
2023/05/02 11:08:42;;;;;;;;;;;;;;;;;;5032059;28;19971;-80
2023/05/02 11:11:07;;;;;;;;;;;;;;;;;;5033936;28;19909;-80
2023/05/02 11:13:33;;;;;;;;;;;;;;;;;;5033970;28;19913;-78
2023/05/02 11:15:58;;;;;;;;;;;;;;;;;;5035234;28;20417;-80
2023/05/02 11:18:24;;;;;;;;;;;;;;;;;;5016266;28;19920;-81
2023/05/02 11:20:49;;;;;;;;;;;;;;;;;;5034092;28;19943;-78
2023/05/02 11:23:14;;;;;;;;;;;;;;;;;;5033738;28;19970;-78
2023/05/02 11:25:40;;;;;;;;;;;;;;;;;;5036800;28;20042;-78
2023/05/02 11:28:05;;;;;;;;;;;;;;;;;;5037895;28;19913;-80
2023/05/02 11:30:31;;;;;;;;;;;;;;;;;;5039852;28;19913;-80
2023/05/02 11:32:58;;;;;;;;;;;;;;;;;;5039797;28;19920;-80
2023/05/02 11:35:23;;;;;;;;;;;;;;;;;;5034807;28;20031;-80
2023/05/02 11:37:48;;;;;;;;;;;;;;;;;;5040671;28;20110;-80
2023/05/02 11:40:14;;;;;;;;;;;;;;;;;;5033759;28;19915;-80
2023/05/02 11:42:39;;;;;;;;;;;;;;;;;;5039096;28;20268;-81
2023/05/02 11:45:05;;;;;;;;;;;;;;;;;;5039109;28;19916;-81
2023/05/02 11:47:30;;;;;;;;;;;;;;;;;;5040274;28;19913;-81
2023/05/02 11:49:55;;;;;;;;;;;;;;;;;;5036895;28;19909;-80
2023/05/02 11:52:21;;;;;;;;;;;;;;;;;;5037122;28;19921;-80
2023/05/02 11:54:46;;;;;;;;;;;;;;;;;;5039050;28;19992;-81
2023/05/02 11:57:11;;;;;;;;;;;;;;;;;;5043429;28;19923;-81
2023/05/02 11:59:36;;;;;;;;;;;;;;;;;;5031891;28;19909;-80
2023/05/02 12:02:02;;;;;;;;;;;;;;;;;;5031114;28;20427;-80
2023/05/02 12:04:27;;;;;;;;;;;;;;;;;;5033140;28;19912;-80
2023/05/02 12:06:52;;;;;;;;;;;;;;;;;;5033126;28;19920;-80
2023/05/02 12:09:20;;;;;;;;;;;;;;;;;;5034592;28;19909;-80
2023/05/02 12:11:46;;;;;;;;;;;;;;;;;;5033061;28;20679;-79
2023/05/02 12:14:11;;;;;;;;;;;;;;;;;;5033400;28;19913;-80
2023/05/02 12:16:36;;;;;;;;;;;;;;;;;;5032377;28;19955;-81
2023/05/02 12:19:02;;;;;;;;;;;;;;;;;;5032494;28;19959;-79
2023/05/02 12:21:32;;;;;;;;;;;;;;;;;;5032553;28;19912;-80
2023/05/02 12:23:57;;;;;;;;;;;;;;;;;;5034404;28;19920;-80
2023/05/02 12:26:31;;;;;;;;;;;;;;;;;;5032194;28;19913;-79
2023/05/02 12:29:01;;;;;;;;;;;;;;;;;;5034623;28;19912;-80
2023/05/02 12:31:27;;;;;;;;;;;;;;;;;;5031471;28;19913;-80
2023/05/02 12:33:56;;;;;;;;;;;;;;;;;;5030233;28;19924;-80
2023/05/02 12:36:21;;;;;;;;;;;;;;;;;;5030731;28;19925;-80
2023/05/02 12:38:48;;;;;;;;;;;;;;;;;;5030122;28;19920;-80
2023/05/02 12:41:13;;;;;;;;;;;;;;;;;;5029168;28;19962;-79
2023/05/02 12:43:38;;;;;;;;;;;;;;;;;;5034297;28;19952;-80
2023/05/02 12:46:03;;;;;;;;;;;;;;;;;;5032941;28;19991;-79
2023/05/02 12:48:29;;;;;;;;;;;;;;;;;;5034487;28;20292;-80
2023/05/02 12:50:54;;;;;;;;;;;;;;;;;;5032235;28;19913;-80
2023/05/02 12:53:20;;;;;;;;;;;;;;;;;;5031610;28;19913;-80
2023/05/02 12:55:45;;;;;;;;;;;;;;;;;;5032227;28;19913;-80
2023/05/02 12:58:15;;;;;;;;;;;;;;;;;;5012719;28;19967;-80
2023/05/02 13:00:40;;;;;;;;;;;;;;;;;;5030503;28;19908;-80
2023/05/02 13:03:06;;;;;;;;;;;;;;;;;;5014336;28;19944;-80
2023/05/02 13:05:31;;;;;;;;;;;;;;;;;;5031650;28;19920;-80
2023/05/02 13:07:58;;;;;;;;;;;;;;;;;;5033297;28;19924;-81
2023/05/02 13:10:24;;;;;;;;;;;;;;;;;;5030755;28;20371;-80
2023/05/02 13:12:50;;;;;;;;;;;;;;;;;;5037333;28;19913;-80
2023/05/02 13:15:15;;;;;;;;;;;;;;;;;;5037703;28;19919;-80
2023/05/02 13:17:41;;;;;;;;;;;;;;;;;;5037298;28;19916;-80
2023/05/02 13:20:07;;;;;;;;;;;;;;;;;;5037772;28;19909;-79
2023/05/02 13:22:32;;;;;;;;;;;;;;;;;;5022964;28;20007;-81
2023/05/02 13:24:57;;;;;;;;;;;;;;;;;;5038404;28;20013;-80
2023/05/02 13:27:22;;;;;;;;;;;;;;;;;;5042393;28;19920;-80
2023/05/02 13:29:48;;;;;;;;;;;;;;;;;;5039645;28;19909;-79
2023/05/02 13:32:13;;;;;;;;;;;;;;;;;;5040856;28;19966;-80
2023/05/02 13:34:38;;;;;;;;;;;;;;;;;;5037840;28;19928;-80
2023/05/02 13:37:04;;;;;;;;;;;;;;;;;;5042512;28;19916;-80
2023/05/02 13:39:29;;;;;;;;;;;;;;;;;;5039611;28;19909;-80
2023/05/02 13:41:54;;;;;;;;;;;;;;;;;;5043525;28;19913;-80
2023/05/02 13:44:20;;;;;;;;;;;;;;;;;;5040635;28;19916;-80
2023/05/02 13:46:46;;;;;;;;;;;;;;;;;;5043625;28;20007;-78
2023/05/02 13:49:11;;;;;;;;;;;;;;;;;;5042249;28;19928;-81
2023/05/02 13:51:37;;;;;;;;;;;;;;;;;;5043364;28;20003;-80
2023/05/02 13:54:02;;;;;;;;;;;;;;;;;;5041186;28;19975;-78
2023/05/02 13:56:27;;;;;;;;;;;;;;;;;;5042407;28;20425;-80
2023/05/02 13:58:52;;;;;;;;;;;;;;;;;;5037135;28;20015;-80
2023/05/02 14:01:18;;;;;;;;;;;;;;;;;;5033321;28;20501;-81
2023/05/02 14:03:43;;;;;;;;;;;;;;;;;;5034105;28;20000;-80
2023/05/02 14:06:09;;;;;;;;;;;;;;;;;;5033329;28;19920;-80
2023/05/02 14:08:34;;;;;;;;;;;;;;;;;;5033640;28;20283;-80
2023/05/02 14:11:00;;;;;;;;;;;;;;;;;;5034271;28;19948;-80
2023/05/02 14:13:25;;;;;;;;;;;;;;;;;;5033514;28;19909;-81
2023/05/02 14:15:50;;;;;;;;;;;;;;;;;;5035129;28;19939;-80
2023/05/02 14:18:16;;;;;;;;;;;;;;;;;;5033131;28;19908;-80
2023/05/02 14:20:41;;;;;;;;;;;;;;;;;;5034952;28;20640;-80
2023/05/02 14:23:06;;;;;;;;;;;;;;;;;;5033947;28;20343;-80
2023/05/02 14:25:32;;;;;;;;;;;;;;;;;;5035690;28;19913;-80
2023/05/02 14:27:57;;;;;;;;;;;;;;;;;;5034124;28;19955;-80
2023/05/02 14:30:22;;;;;;;;;;;;;;;;;;5032029;28;20368;-80
2023/05/02 14:32:48;;;;;;;;;;;;;;;;;;5033562;28;20334;-80
2023/05/02 14:35:13;;;;;;;;;;;;;;;;;;5031587;28;19960;-80
2023/05/02 14:37:39;;;;;;;;;;;;;;;;;;5032552;28;19913;-80
2023/05/02 14:40:04;;;;;;;;;;;;;;;;;;5031620;28;19912;-80
2023/05/02 14:42:29;;;;;;;;;;;;;;;;;;5037723;28;19909;-81
2023/05/02 14:44:55;;;;;;;;;;;;;;;;;;5033658;28;19913;-81
2023/05/02 14:47:21;;;;;;;;;;;;;;;;;;5031942;28;19909;-81
2023/05/02 14:49:46;;;;;;;;;;;;;;;;;;5034259;28;19913;-80
2023/05/02 14:52:12;;;;;;;;;;;;;;;;;;5033858;28;19935;-81
2023/05/02 14:54:37;;;;;;;;;;;;;;;;;;5033375;28;19923;-82
2023/05/02 14:57:02;;;;;;;;;;;;;;;;;;5033091;28;19909;-80
2023/05/02 14:59:28;;;;;;;;;;;;;;;;;;5032566;28;19913;-81
2023/05/02 15:01:53;;;;;;;;;;;;;;;;;;5033387;28;19909;-81
2023/05/02 15:04:18;;;;;;;;;;;;;;;;;;5033841;28;19920;-81
2023/05/02 15:06:44;;;;;;;;;;;;;;;;;;5040583;28;19915;-80
2023/05/02 15:09:10;;;;;;;;;;;;;;;;;;5054886;28;20287;-79
2023/05/02 15:11:36;;;;;;;;;;;;;;;;;;5033864;28;19909;-78
2023/05/02 15:14:01;;;;;;;;;;;;;;;;;;5033613;28;19917;-79
2023/05/02 15:16:26;;;;;;;;;;;;;;;;;;5032469;28;19913;-80
2023/05/02 15:18:52;;;;;;;;;;;;;;;;;;5032569;28;19912;-80
2023/05/02 15:21:17;;;;;;;;;;;;;;;;;;5032964;28;19909;-79
2023/05/02 15:23:42;;;;;;;;;;;;;;;;;;5033155;28;20000;-78
2023/05/02 15:26:08;;;;;;;;;;;;;;;;;;5033655;28;20299;-81
2023/05/02 15:28:33;;;;;;;;;;;;;;;;;;5033142;28;20015;-79
2023/05/02 15:30:58;;;;;;;;;;;;;;;;;;5032188;28;19920;-80
2023/05/02 15:33:24;;;;;;;;;;;;;;;;;;5032254;28;20403;-79
2023/05/02 15:35:49;;;;;;;;;;;;;;;;;;5031972;28;19966;-80
2023/05/02 15:38:15;;;;;;;;;;;;;;;;;;5033401;28;19913;-81
2023/05/02 15:40:40;;;;;;;;;;;;;;;;;;5031399;28;19909;-80
2023/05/02 15:43:05;;;;;;;;;;;;;;;;;;5033034;28;19920;-80
2023/05/02 15:45:31;;;;;;;;;;;;;;;;;;5031646;28;19912;-79
2023/05/02 15:47:56;;;;;;;;;;;;;;;;;;5031819;28;20016;-79
2023/05/02 15:50:21;;;;;;;;;;;;;;;;;;5024743;28;19909;-79
2023/05/02 15:52:47;;;;;;;;;;;;;;;;;;5032666;28;19940;-80
2023/05/02 15:55:12;;;;;;;;;;;;;;;;;;5037309;28;19919;-80
2023/05/02 15:57:37;;;;;;;;;;;;;;;;;;5042842;28;19920;-79
2023/05/02 16:00:03;;;;;;;;;;;;;;;;;;5033909;28;19909;-79
2023/05/02 16:02:29;;;;;;;;;;;;;;;;;;5034550;28;19916;-79
2023/05/02 16:04:55;;;;;;;;;;;;;;;;;;5037337;28;19908;-79
2023/05/02 16:07:20;;;;;;;;;;;;;;;;;;5035600;28;19919;-80
2023/05/02 16:09:45;;;;;;;;;;;;;;;;;;5035393;28;20649;-80
2023/05/02 16:12:11;;;;;;;;;;;;;;;;;;5034157;28;19917;-79
2023/05/02 16:14:36;;;;;;;;;;;;;;;;;;5038301;28;19912;-79
2023/05/02 16:17:02;;;;;;;;;;;;;;;;;;5032187;28;19967;-79
2023/05/02 16:19:28;;;;;;;;;;;;;;;;;;5036455;28;20275;-80
2023/05/02 16:21:53;;;;;;;;;;;;;;;;;;5032507;28;19913;-79
2023/05/02 16:24:18;;;;;;;;;;;;;;;;;;5042158;28;19915;-80
2023/05/02 16:26:44;;;;;;;;;;;;;;;;;;5033069;28;20323;-79
2023/05/02 16:29:09;;;;;;;;;;;;;;;;;;5031988;28;20010;-80
2023/05/02 16:31:35;;;;;;;;;;;;;;;;;;5058665;28;19924;-80
2023/05/02 16:34:01;;;;;;;;;;;;;;;;;;5015217;28;19916;-80